Terminal Aerodrome Forecast
Issued by NWS

Home | Current Version | Previous Version | Text Only | Print | Product List | Glossary On
Versions: 1 2 3 4 5 6 7 8 9 10 11 12 13 14
000
FTUS46 KMTR 210523
TAFMRY
TAF
KMRY 210523Z 2106/2206 24005KT P6SM OVC012
     FM211730 26010KT P6SM BKN017
      TEMPO 2118/2122 SCT020
     FM220300 24004KT P6SM OVC012=

USA.gov is the U.S. government's official web portal to all federal, state and local government web resources and services.